Craig G — WDB5332 — position and weather

sailwx.info

Track history (hours):
 
Tides and Currents Weather Stations Pressure Air Temp Water Temp Dewpoint Dewpoint Depression Visibility Wind Speed Wind Dir Waves Ship Positions

Craig G

Owner: San Diego Towing & Marine Services,Inc., San Diego, CA. More information available from US FCC via Universal Licensing System and Coast Guard Vessel Documentation Center.

Last reported at 2016-Jul-28 00:10 UTC. Time now 2016-Jul-30 18:52 UTC.
Position N 32°41' W 117°14'.

; draft 2 m.

Type: Ship. MMSI: 366908460.

Date/timePositionNaut miles runAvg speedWind from/ knotsBaromVisibWave heightAir tempDewpointWater temp
2016-Jul-28 00:10N 32°41' W 117°14'2 3.2
2016-Jul-27 23:33N 32°43' W 117°14'2 1.9
2016-Jul-27 22:32N 32°41' W 117°14'1414.3
2016-Jul-27 21:33N 32°43' W 117°30'1918.9
2016-Jul-27 20:33N 32°49' W 117°52'1918.7
2016-Jul-27 19:33N 32°56' W 118°12'1313.0
2016-Jul-27 18:33N 33°00' W 118°27'1 0.9
2016-Jul-27 17:33N 32°60' W 118°26'7 6.8
2016-Jul-27 16:29N 32°57' W 118°18'1516.2
2016-Jul-27 15:34N 32°52' W 118°01'1615.9
2016-Jul-27 14:33N 32°47' W 117°43'1615.9
2016-Jul-27 13:34N 32°42' W 117°25'10 8.4
2016-Jul-27 12:26N 32°41' W 117°14'4 0.3
2016-Jul-26 22:33N 32°40' W 117°18'1818.5
2016-Jul-26 21:33N 32°45' W 117°39'1918.7
2016-Jul-26 20:33N 32°51' W 118°00'1716.8
2016-Jul-26 19:33N 32°57' W 118°19'6 5.9
2016-Jul-26 18:33N 32°60' W 118°25'9 6.2
2016-Jul-26 17:05N 32°56' W 118°15'918.1
2016-Jul-26 16:34N 32°53' W 118°05'1818.0
2016-Jul-26 15:33N 32°47' W 117°44'1817.8
2016-Jul-26 14:34N 32°42' W 117°24'9 0.5
2016-Jul-25 22:33N 32°41' W 117°14'1414.6
2016-Jul-25 21:34N 32°44' W 117°31'1918.6
2016-Jul-25 20:33N 32°50' W 117°52'1818.3
2016-Jul-25 19:33N 32°55' W 118°13'1212.2
2016-Jul-25 18:33N 32°59' W 118°27'4013.0
2016-Jul-25 15:27N 32°46' W 117°41'1718.3
2016-Jul-25 14:33N 32°41' W 117°22'  
2016-Jul-20 22:14N 32°41' W 117°14'811.3
2016-Jul-20 21:34N 32°42' W 117°23'1918.6
2016-Jul-20 20:34N 32°47' W 117°44'1918.5
2016-Jul-20 19:33N 32°55' W 118°05'1817.3
2016-Jul-20 18:32N 33°01' W 118°24'0 0.3
2016-Jul-20 17:17N 33°01' W 118°24'2112.3
2016-Jul-20 15:33N 32°52' W 118°01'1817.9
2016-Jul-20 14:33N 32°46' W 117°41'1817.7
2016-Jul-20 13:32N 32°41' W 117°21'6 0.4
2016-Jul-19 22:30N 32°41' W 117°14'1414.7
2016-Jul-19 21:33N 32°41' W 117°31'1818.5
2016-Jul-19 20:33N 32°47' W 117°51'1817.7
2016-Jul-19 19:33N 32°54' W 118°11'1313.3
2016-Jul-19 18:33N 32°58' W 118°26'4 4.0
2016-Jul-19 17:33N 32°57' W 118°21'2218.2
2016-Jul-19 16:21N 32°50' W 117°56'1417.7
2016-Jul-19 15:33N 32°46' W 117°40'21 1.3
2016-Jul-18 22:32N 32°39' W 117°16'1918.9
2016-Jul-18 21:33N 32°45' W 117°37'1918.8
2016-Jul-18 20:33N 32°51' W 117°59'1818.5
2016-Jul-18 19:33N 32°56' W 118°20'35 8.8
2016-Jul-18 15:33N 32°45' W 117°40'  
Track history (hours):
 
Tides and Currents Weather Stations Pressure Air Temp Water Temp Dewpoint Dewpoint Depression Visibility Wind Speed Wind Dir Waves Ship Positions

Craig G

Owner: San Diego Towing & Marine Services,Inc., San Diego, CA. More information available from US FCC via Universal Licensing System and Coast Guard Vessel Documentation Center.

Last reported at 2016-Jul-28 00:10 UTC. Time now 2016-Jul-30 18:52 UTC.
Position N 32°41' W 117°14'.

; draft 2 m.

Type: Ship. MMSI: 366908460.

Date/timePositionNaut miles runAvg speedWind from/ knotsBaromVisibWave heightAir tempDewpointWater temp
2016-Jul-28 00:10N 32°41' W 117°14'2 3.2
2016-Jul-27 23:33N 32°43' W 117°14'2 1.9
2016-Jul-27 22:32N 32°41' W 117°14'1414.3
2016-Jul-27 21:33N 32°43' W 117°30'1918.9
2016-Jul-27 20:33N 32°49' W 117°52'1918.7
2016-Jul-27 19:33N 32°56' W 118°12'1313.0
2016-Jul-27 18:33N 33°00' W 118°27'1 0.9
2016-Jul-27 17:33N 32°60' W 118°26'7 6.8
2016-Jul-27 16:29N 32°57' W 118°18'1516.2
2016-Jul-27 15:34N 32°52' W 118°01'1615.9
2016-Jul-27 14:33N 32°47' W 117°43'1615.9
2016-Jul-27 13:34N 32°42' W 117°25'10 8.4
2016-Jul-27 12:26N 32°41' W 117°14'4 0.3
2016-Jul-26 22:33N 32°40' W 117°18'1818.5
2016-Jul-26 21:33N 32°45' W 117°39'1918.7
2016-Jul-26 20:33N 32°51' W 118°00'1716.8
2016-Jul-26 19:33N 32°57' W 118°19'6 5.9
2016-Jul-26 18:33N 32°60' W 118°25'9 6.2
2016-Jul-26 17:05N 32°56' W 118°15'918.1
2016-Jul-26 16:34N 32°53' W 118°05'1818.0
2016-Jul-26 15:33N 32°47' W 117°44'1817.8
2016-Jul-26 14:34N 32°42' W 117°24'9 0.5
2016-Jul-25 22:33N 32°41' W 117°14'1414.6
2016-Jul-25 21:34N 32°44' W 117°31'1918.6
2016-Jul-25 20:33N 32°50' W 117°52'1818.3
2016-Jul-25 19:33N 32°55' W 118°13'1212.2
2016-Jul-25 18:33N 32°59' W 118°27'4013.0
2016-Jul-25 15:27N 32°46' W 117°41'1718.3
2016-Jul-25 14:33N 32°41' W 117°22'  
2016-Jul-20 22:14N 32°41' W 117°14'811.3
2016-Jul-20 21:34N 32°42' W 117°23'1918.6
2016-Jul-20 20:34N 32°47' W 117°44'1918.5
2016-Jul-20 19:33N 32°55' W 118°05'1817.3
2016-Jul-20 18:32N 33°01' W 118°24'0 0.3
2016-Jul-20 17:17N 33°01' W 118°24'2112.3
2016-Jul-20 15:33N 32°52' W 118°01'1817.9
2016-Jul-20 14:33N 32°46' W 117°41'1817.7
2016-Jul-20 13:32N 32°41' W 117°21'6 0.4
2016-Jul-19 22:30N 32°41' W 117°14'1414.7
2016-Jul-19 21:33N 32°41' W 117°31'1818.5
2016-Jul-19 20:33N 32°47' W 117°51'1817.7
2016-Jul-19 19:33N 32°54' W 118°11'1313.3
2016-Jul-19 18:33N 32°58' W 118°26'4 4.0
2016-Jul-19 17:33N 32°57' W 118°21'2218.2
2016-Jul-19 16:21N 32°50' W 117°56'1417.7
2016-Jul-19 15:33N 32°46' W 117°40'21 1.3
2016-Jul-18 22:32N 32°39' W 117°16'1918.9
2016-Jul-18 21:33N 32°45' W 117°37'1918.8
2016-Jul-18 20:33N 32°51' W 117°59'1818.5
2016-Jul-18 19:33N 32°56' W 118°20'35 8.8
2016-Jul-18 15:33N 32°45' W 117°40'  

Dump ship's entire track history